createdAt,value
2019-02-20T00:04:33.086Z,25.80
2019-02-20T00:09:37.777Z,36.83
2019-02-20T00:14:42.516Z,29.43
2019-02-20T00:19:47.158Z,24.87
2019-02-20T00:24:51.901Z,28.43
2019-02-20T00:29:58.281Z,25.97
2019-02-20T00:35:03.025Z,24.00
2019-02-20T00:40:09.803Z,25.10
2019-02-20T00:45:28.154Z,24.53
2019-02-20T00:50:34.329Z,24.73
2019-02-20T00:55:39.097Z,24.63
2019-02-20T01:00:43.733Z,23.43
2019-02-20T01:05:48.475Z,25.57
2019-02-20T01:10:53.118Z,24.87
2019-02-20T01:15:59.716Z,26.17
2019-02-20T01:21:04.143Z,86.57
2019-02-20T01:26:10.509Z,35.20
2019-02-20T01:31:16.047Z,37.10
2019-02-20T01:36:20.824Z,51.67
2019-02-20T01:41:25.565Z,48.03
2019-02-20T01:46:31.954Z,41.87
2019-02-20T01:51:37.613Z,40.20
2019-02-20T01:56:42.243Z,44.83
2019-02-20T02:01:47.991Z,42.87
2019-02-20T02:06:52.660Z,29.23
2019-02-20T02:11:57.401Z,28.43
2019-02-20T02:17:02.140Z,20.57
2019-02-20T02:22:06.888Z,19.37
2019-02-20T02:27:11.530Z,21.93
2019-02-20T02:32:16.371Z,42.73
2019-02-20T02:37:21.011Z,21.83
2019-02-20T02:42:25.664Z,22.97
2019-02-20T02:47:30.905Z,26.13
2019-02-20T02:52:35.650Z,25.77
2019-02-20T02:57:41.393Z,26.53
2019-02-20T03:02:46.918Z,46.60
2019-02-20T03:07:51.513Z,33.73
2019-02-20T03:12:56.154Z,27.20
2019-02-20T03:18:00.793Z,29.00
2019-02-20T03:23:05.429Z,28.73
2019-02-20T03:28:10.075Z,26.80
2019-02-20T03:33:14.818Z,24.70
2019-02-20T03:38:29.647Z,29.33
2019-02-20T03:43:25.837Z,22.60
2019-02-20T03:48:30.480Z,26.50
2019-02-20T03:53:35.327Z,60.03
2019-02-20T03:58:40.068Z,36.87
2019-02-20T04:03:44.808Z,25.17
2019-02-20T04:08:49.465Z,19.53
2019-02-20T04:13:54.197Z,22.07
2019-02-20T04:18:58.934Z,30.43
2019-02-20T04:24:05.385Z,44.27
2019-02-20T04:29:10.161Z,37.20
2019-02-20T04:34:15.007Z,45.77
2019-02-20T04:39:19.650Z,51.03
2019-02-20T04:44:24.697Z,65.27
2019-02-20T04:49:29.337Z,52.33
2019-02-20T04:54:34.083Z,60.73
2019-02-20T04:59:38.821Z,44.07
2019-02-20T05:04:43.560Z,49.03
2019-02-20T05:09:48.309Z,48.43
2019-02-20T05:14:52.899Z,43.57
2019-02-20T05:19:57.434Z,45.80
2019-02-20T05:25:02.298Z,47.10
2019-02-20T05:30:08.931Z,47.27
2019-02-20T05:35:13.657Z,46.53
2019-02-20T05:40:18.399Z,44.73
2019-02-20T05:45:23.142Z,56.03
2019-02-20T05:50:27.990Z,54.20
2019-02-20T05:55:32.653Z,47.23
2019-02-20T06:00:37.378Z,57.97
2019-02-20T06:05:42.008Z,86.20
2019-02-20T06:10:46.938Z,71.90
2019-02-20T06:15:51.864Z,68.67
2019-02-20T06:20:57.449Z,74.17
2019-02-20T06:26:02.237Z,82.70
2019-02-20T06:31:07.027Z,74.00
2019-02-20T06:36:12.925Z,60.20
2019-02-20T06:41:17.663Z,58.93
2019-02-20T06:46:22.407Z,54.83
2019-02-20T06:51:27.050Z,62.47
2019-02-20T06:56:31.805Z,54.43
2019-02-20T07:01:37.557Z,50.07
2019-02-20T07:06:51.003Z,58.53
2019-02-20T07:12:30.672Z,55.27
2019-02-20T07:17:53.641Z,82.90
2019-02-20T07:23:10.781Z,76.97
2019-02-20T07:28:30.973Z,74.17
2019-02-20T07:33:35.747Z,78.13
2019-02-20T07:38:42.120Z,86.53
2019-02-20T07:43:46.680Z,96.97
2019-02-20T07:48:51.479Z,82.07
2019-02-20T07:53:56.125Z,74.53
2019-02-20T07:59:02.227Z,68.50
2019-02-20T08:04:07.875Z,60.07
2019-02-20T08:09:12.814Z,55.70
2019-02-20T08:14:17.550Z,44.23
2019-02-20T08:19:22.194Z,36.93
2019-02-20T08:24:27.959Z,36.10
2019-02-20T08:29:32.546Z,31.43
2019-02-20T08:34:37.238Z,28.03
2019-02-20T08:39:41.812Z,28.73
2019-02-20T08:44:46.531Z,32.33
2019-02-20T08:49:51.168Z,34.53
2019-02-20T08:54:56.008Z,32.67
2019-02-20T09:00:00.650Z,32.63
2019-02-20T09:05:09.057Z,32.30
2019-02-20T09:10:14.129Z,35.40
2019-02-20T09:15:18.872Z,30.90
2019-02-20T09:20:23.715Z,29.50
2019-02-20T09:25:30.101Z,34.23
2019-02-20T09:30:34.846Z,29.00
2019-02-20T09:35:39.512Z,23.60
2019-02-20T09:40:45.251Z,30.03
2019-02-20T09:45:50.816Z,18.10
2019-02-20T09:50:55.378Z,18.83
2019-02-20T09:56:00.196Z,16.00
2019-02-20T10:01:04.841Z,15.80
2019-02-20T10:06:09.481Z,13.03
2019-02-20T10:11:14.221Z,12.77
2019-02-20T10:16:18.970Z,19.60
2019-02-20T10:21:23.713Z,17.20
2019-02-20T10:26:28.454Z,19.63
2019-02-20T10:31:33.225Z,10.57
2019-02-20T10:36:37.942Z,10.60
2019-02-20T10:41:42.576Z,14.03
2019-02-20T10:46:47.320Z,14.23
2019-02-20T10:51:52.072Z,11.37
2019-02-20T10:56:56.816Z,10.53
2019-02-20T11:02:01.554Z,11.17
2019-02-20T11:07:07.319Z,11.60
2019-02-20T11:12:12.064Z,12.67
2019-02-20T11:17:17.012Z,12.40
2019-02-20T11:22:21.756Z,12.67
2019-02-20T11:27:26.532Z,10.93
2019-02-20T11:32:31.246Z,10.63
2019-02-20T11:37:35.892Z,11.03
2019-02-20T11:42:40.630Z,10.80
2019-02-20T11:47:45.375Z,10.40
2019-02-20T11:52:50.119Z,12.70
2019-02-20T11:58:00.803Z,11.77
2019-02-20T12:03:02.779Z,12.93
2019-02-20T12:08:07.827Z,13.07
2019-02-20T12:13:12.573Z,10.50
2019-02-20T12:18:17.721Z,11.33
2019-02-20T12:23:24.215Z,10.33
2019-02-20T12:28:28.951Z,9.53
2019-02-20T12:33:35.434Z,9.93
2019-02-20T12:38:40.179Z,9.17
2019-02-20T12:43:44.926Z,8.23
2019-02-20T12:48:49.701Z,7.87
2019-02-20T12:53:55.159Z,7.23
2019-02-20T12:59:07.562Z,7.83
2019-02-20T13:04:07.483Z,7.33
2019-02-20T13:09:13.867Z,7.90
2019-02-20T13:14:19.019Z,7.23
2019-02-20T13:19:23.763Z,7.63
2019-02-20T13:24:29.309Z,8.13
2019-02-20T13:29:34.071Z,7.63
2019-02-20T13:34:41.981Z,7.63
2019-02-20T13:39:46.729Z,7.77
2019-02-20T13:44:53.851Z,7.70
2019-02-20T13:49:58.671Z,8.57
2019-02-20T13:55:03.313Z,8.63
2019-02-20T14:00:13.336Z,8.90
2019-02-20T14:05:20.075Z,8.43
2019-02-20T14:10:24.918Z,7.20
2019-02-20T14:15:29.987Z,8.57
2019-02-20T14:20:34.739Z,6.93
2019-02-20T14:25:39.453Z,7.50
2019-02-20T14:30:45.845Z,18.60
2019-02-20T14:35:50.581Z,11.30
2019-02-20T14:40:57.065Z,11.27
2019-02-20T14:46:02.131Z,16.90
2019-02-20T14:51:06.856Z,6.60
2019-02-20T14:56:11.701Z,16.30
2019-02-20T15:01:16.451Z,7.03
2019-02-20T15:06:21.091Z,6.53
2019-02-20T15:11:26.404Z,8.03
2019-02-20T15:16:32.213Z,7.40
2019-02-20T15:21:37.159Z,6.33
2019-02-20T15:26:41.907Z,7.63
2019-02-20T15:31:46.750Z,9.90
2019-02-20T15:36:51.627Z,17.00
2019-02-20T15:41:56.669Z,25.07
2019-02-20T15:47:01.928Z,13.50
2019-02-20T15:52:06.747Z,51.97
2019-02-20T15:57:11.819Z,77.30
2019-02-20T16:02:16.650Z,14.40
2019-02-20T16:07:21.835Z,13.90
2019-02-20T16:12:27.204Z,11.43
2019-02-20T16:17:33.050Z,12.73
2019-02-20T16:22:39.167Z,10.60
2019-02-20T16:27:47.078Z,17.97
2019-02-20T16:32:51.322Z,22.60
2019-02-20T16:37:56.216Z,66.00
2019-02-20T16:43:00.956Z,68.87
2019-02-20T16:48:05.689Z,66.90
2019-02-20T16:53:10.530Z,51.10
2019-02-20T16:58:15.174Z,28.60
2019-02-20T17:03:19.911Z,47.87
2019-02-20T17:08:24.706Z,43.07
2019-02-20T17:13:29.717Z,34.13
2019-02-20T17:18:34.651Z,33.00
2019-02-20T17:23:39.401Z,45.73
2019-02-20T17:28:44.142Z,32.00
2019-02-20T17:33:49.811Z,24.30
2019-02-20T17:38:54.653Z,29.83
2019-02-20T17:43:59.291Z,33.53
2019-02-20T17:49:04.073Z,35.23
2019-02-20T17:54:08.777Z,40.53
2019-02-20T17:59:13.521Z,42.30
2019-02-20T18:04:18.267Z,27.93
2019-02-20T18:09:23.006Z,35.67
2019-02-20T18:14:27.757Z,47.30
2019-02-20T18:19:32.496Z,37.87
2019-02-20T18:24:37.344Z,34.80
2019-02-20T18:29:42.388Z,32.97
2019-02-20T18:34:47.343Z,30.27
2019-02-20T18:39:53.142Z,28.80
2019-02-20T18:44:57.966Z,25.63
2019-02-20T18:50:02.705Z,34.50
2019-02-20T18:55:09.830Z,63.40
2019-02-20T19:00:20.349Z,22.27
2019-02-20T19:05:26.961Z,41.67
2019-02-20T19:10:37.964Z,41.50
2019-02-20T19:16:08.605Z,36.97
2019-02-20T19:21:31.986Z,26.43
2019-02-20T19:26:43.113Z,27.77
2019-02-20T19:31:54.584Z,22.30
2019-02-20T19:37:18.973Z,23.73
2019-02-20T19:42:46.465Z,21.17
2019-02-20T19:48:24.676Z,22.63
2019-02-20T19:53:35.483Z,25.10
2019-02-20T19:59:09.305Z,22.70
2019-02-20T20:04:24.233Z,24.07
2019-02-20T20:09:38.898Z,21.73
2019-02-20T20:14:58.772Z,44.17
2019-02-20T20:20:21.629Z,35.63
2019-02-20T20:25:35.281Z,30.03
2019-02-20T20:30:45.661Z,35.80
2019-02-20T20:35:59.218Z,33.97
2019-02-20T20:41:09.137Z,30.03
2019-02-20T20:46:36.126Z,26.20
2019-02-20T20:52:00.724Z,31.33
2019-02-20T20:57:21.025Z,25.60
2019-02-20T21:02:34.472Z,29.23
2019-02-20T21:07:57.549Z,21.97
2019-02-20T21:13:34.992Z,20.83
2019-02-20T21:19:04.281Z,24.40
2019-02-20T21:24:27.185Z,24.93
2019-02-20T21:29:38.094Z,25.73
2019-02-20T21:35:11.448Z,23.17
2019-02-20T21:40:19.361Z,24.30
2019-02-20T21:45:48.443Z,25.10
2019-02-20T21:51:05.201Z,23.90
2019-02-20T21:56:24.809Z,27.53
2019-02-20T22:01:38.616Z,25.97
2019-02-20T22:07:07.884Z,22.83
2019-02-20T22:12:32.270Z,21.13
2019-02-20T22:17:45.836Z,26.00
2019-02-20T22:22:55.250Z,21.80
2019-02-20T22:28:14.894Z,25.53
2019-02-20T22:33:31.496Z,24.10
2019-02-20T22:38:56.191Z,27.70
2019-02-20T22:44:24.555Z,37.43
2019-02-20T22:49:52.067Z,35.53
2019-02-20T22:55:16.267Z,36.67
2019-02-20T23:00:41.854Z,33.13
2019-02-20T23:06:02.932Z,25.43
2019-02-20T23:11:30.505Z,19.73
2019-02-20T23:16:35.151Z,15.63
2019-02-20T23:21:41.549Z,14.23
2019-02-20T23:26:47.279Z,10.43
2019-02-20T23:31:51.927Z,8.37
2019-02-20T23:36:56.558Z,8.77
2019-02-20T23:42:01.315Z,8.23
2019-02-20T23:47:06.051Z,9.10
2019-02-20T23:52:10.802Z,8.67
2019-02-20T23:57:15.377Z,17.30
